sensor_id;sensor_type;location;lat;lon;timestamp;P1;durP1;ratioP1;P2;durP2;ratioP2
24335;SDS011;33098;52.400;16.880;2023-07-20T00:01:04;5.10;;;3.00;;
24335;SDS011;33098;52.400;16.880;2023-07-20T00:03:33;6.70;;;3.60;;
24335;SDS011;33098;52.400;16.880;2023-07-20T00:05:59;5.10;;;3.10;;
24335;SDS011;33098;52.400;16.880;2023-07-20T00:08:26;4.10;;;3.30;;
24335;SDS011;33098;52.400;16.880;2023-07-20T00:10:52;7.60;;;3.50;;
24335;SDS011;33098;52.400;16.880;2023-07-20T00:13:19;8.40;;;3.60;;
24335;SDS011;33098;52.400;16.880;2023-07-20T00:15:47;6.00;;;4.00;;
24335;SDS011;33098;52.400;16.880;2023-07-20T00:18:13;11.00;;;4.10;;
24335;SDS011;33098;52.400;16.880;2023-07-20T00:20:40;8.20;;;4.20;;
24335;SDS011;33098;52.400;16.880;2023-07-20T00:23:07;6.20;;;4.00;;
24335;SDS011;33098;52.400;16.880;2023-07-20T00:25:34;8.70;;;4.20;;
24335;SDS011;33098;52.400;16.880;2023-07-20T00:28:01;7.90;;;3.90;;
24335;SDS011;33098;52.400;16.880;2023-07-20T00:30:28;6.20;;;4.00;;
24335;SDS011;33098;52.400;16.880;2023-07-20T00:32:55;7.60;;;4.20;;
24335;SDS011;33098;52.400;16.880;2023-07-20T00:35:22;6.20;;;4.10;;
24335;SDS011;33098;52.400;16.880;2023-07-20T00:37:50;9.00;;;4.20;;
24335;SDS011;33098;52.400;16.880;2023-07-20T00:40:17;7.40;;;4.20;;
24335;SDS011;33098;52.400;16.880;2023-07-20T00:42:44;6.00;;;4.00;;
24335;SDS011;33098;52.400;16.880;2023-07-20T00:45:11;8.30;;;3.80;;
24335;SDS011;33098;52.400;16.880;2023-07-20T00:47:37;5.60;;;4.00;;
24335;SDS011;33098;52.400;16.880;2023-07-20T00:50:04;7.20;;;4.60;;
24335;SDS011;33098;52.400;16.880;2023-07-20T00:52:32;5.80;;;4.40;;
24335;SDS011;33098;52.400;16.880;2023-07-20T00:54:59;7.20;;;4.60;;
24335;SDS011;33098;52.400;16.880;2023-07-20T00:57:27;6.70;;;4.10;;
24335;SDS011;33098;52.400;16.880;2023-07-20T00:59:54;9.00;;;4.50;;
24335;SDS011;33098;52.400;16.880;2023-07-20T01:02:20;7.60;;;4.20;;
24335;SDS011;33098;52.400;16.880;2023-07-20T01:04:47;7.90;;;4.80;;
24335;SDS011;33098;52.400;16.880;2023-07-20T01:07:22;6.50;;;4.10;;
24335;SDS011;33098;52.400;16.880;2023-07-20T01:10:01;5.90;;;4.00;;
24335;SDS011;33098;52.400;16.880;2023-07-20T01:12:38;5.10;;;3.90;;
24335;SDS011;33098;52.400;16.880;2023-07-20T01:15:08;7.40;;;4.10;;
24335;SDS011;33098;52.400;16.880;2023-07-20T01:17:35;7.50;;;3.90;;
24335;SDS011;33098;52.400;16.880;2023-07-20T01:20:02;6.70;;;3.80;;
24335;SDS011;33098;52.400;16.880;2023-07-20T01:33:52;8.50;;;4.70;;
24335;SDS011;33098;52.400;16.880;2023-07-20T01:36:23;7.00;;;4.30;;
24335;SDS011;33098;52.400;16.880;2023-07-20T01:38:52;5.80;;;3.60;;
24335;SDS011;33098;52.400;16.880;2023-07-20T01:41:20;6.40;;;3.70;;
24335;SDS011;33098;52.400;16.880;2023-07-20T01:43:47;5.70;;;4.00;;
24335;SDS011;33098;52.400;16.880;2023-07-20T01:46:17;6.30;;;3.80;;
24335;SDS011;33098;52.400;16.880;2023-07-20T01:48:44;7.00;;;4.20;;
24335;SDS011;33098;52.400;16.880;2023-07-20T01:51:10;5.80;;;4.20;;
24335;SDS011;33098;52.400;16.880;2023-07-20T01:53:38;4.50;;;3.40;;
24335;SDS011;33098;52.400;16.880;2023-07-20T01:56:05;5.10;;;3.60;;
24335;SDS011;33098;52.400;16.880;2023-07-20T01:58:31;8.70;;;4.00;;
24335;SDS011;33098;52.400;16.880;2023-07-20T02:00:58;9.60;;;4.20;;
24335;SDS011;33098;52.400;16.880;2023-07-20T02:03:25;6.50;;;3.70;;
24335;SDS011;33098;52.400;16.880;2023-07-20T02:05:53;6.90;;;4.30;;
24335;SDS011;33098;52.400;16.880;2023-07-20T02:08:19;6.80;;;4.40;;
24335;SDS011;33098;52.400;16.880;2023-07-20T02:10:47;6.50;;;4.50;;
24335;SDS011;33098;52.400;16.880;2023-07-20T02:13:14;6.80;;;4.30;;
24335;SDS011;33098;52.400;16.880;2023-07-20T02:15:41;6.80;;;4.60;;
24335;SDS011;33098;52.400;16.880;2023-07-20T02:18:09;7.30;;;4.20;;
24335;SDS011;33098;52.400;16.880;2023-07-20T02:20:35;5.80;;;4.50;;
24335;SDS011;33098;52.400;16.880;2023-07-20T02:23:02;5.30;;;4.20;;
24335;SDS011;33098;52.400;16.880;2023-07-20T02:25:29;8.00;;;4.60;;
24335;SDS011;33098;52.400;16.880;2023-07-20T02:27:56;10.50;;;4.50;;
24335;SDS011;33098;52.400;16.880;2023-07-20T02:30:23;6.10;;;4.20;;
24335;SDS011;33098;52.400;16.880;2023-07-20T02:32:49;5.40;;;4.30;;
24335;SDS011;33098;52.400;16.880;2023-07-20T02:35:16;6.20;;;4.30;;
24335;SDS011;33098;52.400;16.880;2023-07-20T02:37:43;6.90;;;4.70;;
24335;SDS011;33098;52.400;16.880;2023-07-20T02:40:10;6.00;;;4.20;;
24335;SDS011;33098;52.400;16.880;2023-07-20T02:42:37;8.60;;;4.80;;
24335;SDS011;33098;52.400;16.880;2023-07-20T02:45:04;7.00;;;4.60;;
24335;SDS011;33098;52.400;16.880;2023-07-20T02:47:32;7.30;;;4.70;;
24335;SDS011;33098;52.400;16.880;2023-07-20T02:49:59;5.90;;;4.60;;
24335;SDS011;33098;52.400;16.880;2023-07-20T02:52:26;6.00;;;4.80;;
24335;SDS011;33098;52.400;16.880;2023-07-20T02:54:53;6.90;;;4.80;;
24335;SDS011;33098;52.400;16.880;2023-07-20T02:57:20;5.50;;;4.80;;
24335;SDS011;33098;52.400;16.880;2023-07-20T02:59:46;6.20;;;4.60;;
24335;SDS011;33098;52.400;16.880;2023-07-20T03:02:13;6.90;;;4.70;;
24335;SDS011;33098;52.400;16.880;2023-07-20T03:04:39;7.90;;;5.00;;
24335;SDS011;33098;52.400;16.880;2023-07-20T03:07:06;6.00;;;4.90;;
24335;SDS011;33098;52.400;16.880;2023-07-20T03:09:34;5.10;;;4.60;;
24335;SDS011;33098;52.400;16.880;2023-07-20T03:12:00;6.90;;;4.90;;
24335;SDS011;33098;52.400;16.880;2023-07-20T03:14:31;7.40;;;5.20;;
24335;SDS011;33098;52.400;16.880;2023-07-20T03:16:58;6.00;;;4.90;;
24335;SDS011;33098;52.400;16.880;2023-07-20T03:19:24;5.30;;;4.60;;
24335;SDS011;33098;52.400;16.880;2023-07-20T03:21:51;10.20;;;4.90;;
24335;SDS011;33098;52.400;16.880;2023-07-20T03:24:19;6.20;;;4.60;;
24335;SDS011;33098;52.400;16.880;2023-07-20T03:26:47;6.20;;;4.60;;
24335;SDS011;33098;52.400;16.880;2023-07-20T03:29:13;5.60;;;4.80;;
24335;SDS011;33098;52.400;16.880;2023-07-20T03:31:42;7.40;;;4.40;;
24335;SDS011;33098;52.400;16.880;2023-07-20T03:34:09;7.10;;;4.50;;
24335;SDS011;33098;52.400;16.880;2023-07-20T03:36:36;6.20;;;4.30;;
24335;SDS011;33098;52.400;16.880;2023-07-20T03:39:02;5.60;;;4.50;;
24335;SDS011;33098;52.400;16.880;2023-07-20T03:41:29;6.60;;;4.00;;
24335;SDS011;33098;52.400;16.880;2023-07-20T03:43:56;6.00;;;4.30;;
24335;SDS011;33098;52.400;16.880;2023-07-20T03:46:23;7.40;;;4.50;;
24335;SDS011;33098;52.400;16.880;2023-07-20T03:48:49;6.30;;;4.70;;
24335;SDS011;33098;52.400;16.880;2023-07-20T03:51:16;6.10;;;4.50;;
24335;SDS011;33098;52.400;16.880;2023-07-20T03:53:43;5.50;;;4.30;;
24335;SDS011;33098;52.400;16.880;2023-07-20T03:56:09;7.50;;;4.70;;
24335;SDS011;33098;52.400;16.880;2023-07-20T03:58:36;6.90;;;4.40;;
24335;SDS011;33098;52.400;16.880;2023-07-20T04:01:03;5.30;;;4.40;;
24335;SDS011;33098;52.400;16.880;2023-07-20T04:03:29;6.40;;;4.30;;
24335;SDS011;33098;52.400;16.880;2023-07-20T04:05:56;6.20;;;4.50;;
24335;SDS011;33098;52.400;16.880;2023-07-20T04:08:25;6.60;;;4.80;;
24335;SDS011;33098;52.400;16.880;2023-07-20T04:10:52;7.10;;;5.20;;
24335;SDS011;33098;52.400;16.880;2023-07-20T04:13:19;5.50;;;4.50;;
24335;SDS011;33098;52.400;16.880;2023-07-20T04:15:45;5.50;;;4.50;;
24335;SDS011;33098;52.400;16.880;2023-07-20T04:18:12;5.40;;;4.40;;
24335;SDS011;33098;52.400;16.880;2023-07-20T04:20:39;4.90;;;4.20;;
24335;SDS011;33098;52.400;16.880;2023-07-20T04:23:06;5.30;;;4.30;;
24335;SDS011;33098;52.400;16.880;2023-07-20T04:25:33;6.40;;;4.50;;
24335;SDS011;33098;52.400;16.880;2023-07-20T04:28:06;8.00;;;4.30;;
24335;SDS011;33098;52.400;16.880;2023-07-20T04:30:36;8.70;;;4.70;;
24335;SDS011;33098;52.400;16.880;2023-07-20T04:33:04;6.90;;;4.60;;
24335;SDS011;33098;52.400;16.880;2023-07-20T04:35:45;5.40;;;4.70;;
24335;SDS011;33098;52.400;16.880;2023-07-20T04:38:26;5.20;;;4.50;;
24335;SDS011;33098;52.400;16.880;2023-07-20T04:41:00;6.10;;;4.70;;
24335;SDS011;33098;52.400;16.880;2023-07-20T04:43:28;8.70;;;4.80;;
24335;SDS011;33098;52.400;16.880;2023-07-20T04:45:58;5.20;;;4.60;;
24335;SDS011;33098;52.400;16.880;2023-07-20T04:48:27;7.00;;;4.80;;
24335;SDS011;33098;52.400;16.880;2023-07-20T04:50:55;6.40;;;4.80;;
24335;SDS011;33098;52.400;16.880;2023-07-20T04:53:22;5.30;;;4.70;;
24335;SDS011;33098;52.400;16.880;2023-07-20T04:55:49;6.40;;;4.60;;
24335;SDS011;33098;52.400;16.880;2023-07-20T04:58:18;7.30;;;4.80;;
24335;SDS011;33098;52.400;16.880;2023-07-20T05:00:47;5.30;;;4.80;;
24335;SDS011;33098;52.400;16.880;2023-07-20T05:03:15;6.50;;;5.10;;
24335;SDS011;33098;52.400;16.880;2023-07-20T05:05:44;6.50;;;5.10;;
24335;SDS011;33098;52.400;16.880;2023-07-20T05:08:11;6.40;;;5.20;;
24335;SDS011;33098;52.400;16.880;2023-07-20T05:10:37;6.30;;;5.10;;
24335;SDS011;33098;52.400;16.880;2023-07-20T05:13:04;6.20;;;4.60;;
24335;SDS011;33098;52.400;16.880;2023-07-20T05:15:35;8.80;;;5.00;;
24335;SDS011;33098;52.400;16.880;2023-07-20T05:18:04;6.10;;;4.60;;
24335;SDS011;33098;52.400;16.880;2023-07-20T05:20:31;9.20;;;4.80;;
24335;SDS011;33098;52.400;16.880;2023-07-20T05:23:00;6.20;;;4.30;;
24335;SDS011;33098;52.400;16.880;2023-07-20T05:25:27;5.70;;;5.10;;
24335;SDS011;33098;52.400;16.880;2023-07-20T05:27:57;8.30;;;4.90;;
24335;SDS011;33098;52.400;16.880;2023-07-20T05:30:23;7.10;;;4.60;;
24335;SDS011;33098;52.400;16.880;2023-07-20T05:32:50;7.30;;;4.90;;
24335;SDS011;33098;52.400;16.880;2023-07-20T05:35:18;7.60;;;4.60;;
24335;SDS011;33098;52.400;16.880;2023-07-20T05:37:45;7.40;;;5.00;;
24335;SDS011;33098;52.400;16.880;2023-07-20T05:40:12;6.10;;;4.90;;
24335;SDS011;33098;52.400;16.880;2023-07-20T05:42:41;6.30;;;4.50;;
24335;SDS011;33098;52.400;16.880;2023-07-20T05:45:07;7.20;;;4.80;;
24335;SDS011;33098;52.400;16.880;2023-07-20T05:47:34;8.80;;;4.40;;
24335;SDS011;33098;52.400;16.880;2023-07-20T05:50:01;5.90;;;4.90;;
24335;SDS011;33098;52.400;16.880;2023-07-20T05:52:28;7.40;;;5.00;;
24335;SDS011;33098;52.400;16.880;2023-07-20T05:54:54;9.30;;;4.70;;
24335;SDS011;33098;52.400;16.880;2023-07-20T05:57:21;7.10;;;5.00;;
24335;SDS011;33098;52.400;16.880;2023-07-20T05:59:47;5.20;;;4.60;;
24335;SDS011;33098;52.400;16.880;2023-07-20T06:02:14;8.40;;;4.80;;
24335;SDS011;33098;52.400;16.880;2023-07-20T06:04:41;9.20;;;4.40;;
24335;SDS011;33098;52.400;16.880;2023-07-20T06:07:07;6.70;;;4.70;;
24335;SDS011;33098;52.400;16.880;2023-07-20T06:09:34;5.50;;;4.50;;
24335;SDS011;33098;52.400;16.880;2023-07-20T06:12:01;7.90;;;4.40;;
24335;SDS011;33098;52.400;16.880;2023-07-20T06:14:28;9.10;;;4.90;;
24335;SDS011;33098;52.400;16.880;2023-07-20T06:16:55;5.80;;;4.50;;
24335;SDS011;33098;52.400;16.880;2023-07-20T06:19:24;4.70;;;4.20;;
24335;SDS011;33098;52.400;16.880;2023-07-20T06:21:50;7.80;;;4.10;;
24335;SDS011;33098;52.400;16.880;2023-07-20T06:24:17;6.90;;;4.20;;
24335;SDS011;33098;52.400;16.880;2023-07-20T06:26:45;5.70;;;4.50;;
24335;SDS011;33098;52.400;16.880;2023-07-20T06:29:12;8.40;;;4.40;;
24335;SDS011;33098;52.400;16.880;2023-07-20T06:31:44;5.10;;;4.40;;
24335;SDS011;33098;52.400;16.880;2023-07-20T06:34:10;6.90;;;3.90;;
24335;SDS011;33098;52.400;16.880;2023-07-20T06:36:37;7.50;;;4.10;;
24335;SDS011;33098;52.400;16.880;2023-07-20T06:39:04;6.30;;;4.10;;
24335;SDS011;33098;52.400;16.880;2023-07-20T06:41:31;5.40;;;4.10;;
24335;SDS011;33098;52.400;16.880;2023-07-20T06:43:57;7.00;;;4.00;;
24335;SDS011;33098;52.400;16.880;2023-07-20T06:46:25;5.90;;;3.60;;
24335;SDS011;33098;52.400;16.880;2023-07-20T06:48:53;5.40;;;3.20;;
24335;SDS011;33098;52.400;16.880;2023-07-20T06:51:19;6.30;;;3.20;;
24335;SDS011;33098;52.400;16.880;2023-07-20T06:53:46;7.00;;;3.10;;
24335;SDS011;33098;52.400;16.880;2023-07-20T06:56:13;8.40;;;3.10;;
24335;SDS011;33098;52.400;16.880;2023-07-20T06:58:40;4.90;;;3.50;;
24335;SDS011;33098;52.400;16.880;2023-07-20T07:01:09;6.10;;;3.10;;
24335;SDS011;33098;52.400;16.880;2023-07-20T07:03:35;4.80;;;2.80;;
24335;SDS011;33098;52.400;16.880;2023-07-20T07:06:03;4.40;;;2.70;;
24335;SDS011;33098;52.400;16.880;2023-07-20T07:08:30;3.80;;;2.60;;
24335;SDS011;33098;52.400;16.880;2023-07-20T07:10:56;4.20;;;2.60;;
24335;SDS011;33098;52.400;16.880;2023-07-20T07:13:25;4.20;;;3.10;;
24335;SDS011;33098;52.400;16.880;2023-07-20T07:15:52;4.80;;;3.10;;
24335;SDS011;33098;52.400;16.880;2023-07-20T07:18:18;4.70;;;2.90;;
24335;SDS011;33098;52.400;16.880;2023-07-20T07:20:50;7.30;;;2.90;;
24335;SDS011;33098;52.400;16.880;2023-07-20T07:23:18;5.60;;;3.20;;
24335;SDS011;33098;52.400;16.880;2023-07-20T07:25:45;5.10;;;3.00;;
24335;SDS011;33098;52.400;16.880;2023-07-20T07:28:12;4.30;;;2.60;;
24335;SDS011;33098;52.400;16.880;2023-07-20T07:30:40;4.00;;;2.50;;
24335;SDS011;33098;52.400;16.880;2023-07-20T07:33:07;6.40;;;2.90;;
24335;SDS011;33098;52.400;16.880;2023-07-20T07:35:33;3.20;;;2.20;;
24335;SDS011;33098;52.400;16.880;2023-07-20T07:38:00;3.00;;;2.30;;
24335;SDS011;33098;52.400;16.880;2023-07-20T07:40:27;3.80;;;2.40;;
24335;SDS011;33098;52.400;16.880;2023-07-20T07:42:53;3.50;;;2.30;;
24335;SDS011;33098;52.400;16.880;2023-07-20T07:45:20;5.00;;;2.40;;
24335;SDS011;33098;52.400;16.880;2023-07-20T07:47:46;3.60;;;2.40;;
24335;SDS011;33098;52.400;16.880;2023-07-20T07:50:13;3.60;;;2.10;;
24335;SDS011;33098;52.400;16.880;2023-07-20T07:52:40;4.40;;;2.20;;
24335;SDS011;33098;52.400;16.880;2023-07-20T07:55:06;3.20;;;2.20;;
24335;SDS011;33098;52.400;16.880;2023-07-20T07:57:34;3.80;;;2.00;;
24335;SDS011;33098;52.400;16.880;2023-07-20T08:00:02;3.70;;;2.10;;
24335;SDS011;33098;52.400;16.880;2023-07-20T08:02:31;4.00;;;1.90;;
24335;SDS011;33098;52.400;16.880;2023-07-20T08:04:58;3.50;;;1.90;;
24335;SDS011;33098;52.400;16.880;2023-07-20T08:07:24;4.50;;;2.20;;
24335;SDS011;33098;52.400;16.880;2023-07-20T08:09:51;5.20;;;2.60;;
24335;SDS011;33098;52.400;16.880;2023-07-20T08:12:17;6.00;;;2.70;;
24335;SDS011;33098;52.400;16.880;2023-07-20T08:14:51;4.30;;;2.60;;
24335;SDS011;33098;52.400;16.880;2023-07-20T08:17:17;3.90;;;2.70;;
24335;SDS011;33098;52.400;16.880;2023-07-20T08:19:45;5.80;;;2.60;;
24335;SDS011;33098;52.400;16.880;2023-07-20T08:22:13;3.90;;;2.70;;
24335;SDS011;33098;52.400;16.880;2023-07-20T08:24:43;5.50;;;3.10;;
24335;SDS011;33098;52.400;16.880;2023-07-20T08:27:10;4.20;;;2.70;;
24335;SDS011;33098;52.400;16.880;2023-07-20T08:29:40;4.60;;;2.30;;
24335;SDS011;33098;52.400;16.880;2023-07-20T08:32:07;3.20;;;2.40;;
24335;SDS011;33098;52.400;16.880;2023-07-20T08:34:34;2.90;;;2.20;;
24335;SDS011;33098;52.400;16.880;2023-07-20T08:37:01;3.50;;;2.70;;
24335;SDS011;33098;52.400;16.880;2023-07-20T08:39:30;4.60;;;2.60;;
24335;SDS011;33098;52.400;16.880;2023-07-20T08:41:57;4.70;;;3.00;;
24335;SDS011;33098;52.400;16.880;2023-07-20T08:44:31;3.30;;;2.90;;
24335;SDS011;33098;52.400;16.880;2023-07-20T08:47:00;4.50;;;3.40;;
24335;SDS011;33098;52.400;16.880;2023-07-20T08:49:34;5.90;;;2.80;;
24335;SDS011;33098;52.400;16.880;2023-07-20T08:52:02;5.80;;;2.80;;
24335;SDS011;33098;52.400;16.880;2023-07-20T08:54:30;4.30;;;2.70;;
24335;SDS011;33098;52.400;16.880;2023-07-20T08:57:03;3.80;;;2.80;;
24335;SDS011;33098;52.400;16.880;2023-07-20T08:59:32;4.60;;;2.50;;
24335;SDS011;33098;52.400;16.880;2023-07-20T09:02:06;3.60;;;2.20;;
24335;SDS011;33098;52.400;16.880;2023-07-20T09:04:35;6.60;;;2.90;;
24335;SDS011;33098;52.400;16.880;2023-07-20T09:07:02;11.60;;;4.90;;
24335;SDS011;33098;52.400;16.880;2023-07-20T09:09:29;10.90;;;5.00;;
24335;SDS011;33098;52.400;16.880;2023-07-20T09:11:55;8.40;;;5.80;;
24335;SDS011;33098;52.400;16.880;2023-07-20T09:14:22;7.40;;;5.00;;
24335;SDS011;33098;52.400;16.880;2023-07-20T09:16:53;6.30;;;2.50;;
24335;SDS011;33098;52.400;16.880;2023-07-20T09:19:21;3.30;;;1.50;;
24335;SDS011;33098;52.400;16.880;2023-07-20T09:21:48;1.90;;;1.20;;
24335;SDS011;33098;52.400;16.880;2023-07-20T09:24:17;3.50;;;1.60;;
24335;SDS011;33098;52.400;16.880;2023-07-20T09:26:45;4.10;;;1.80;;
24335;SDS011;33098;52.400;16.880;2023-07-20T09:29:19;3.20;;;2.00;;
24335;SDS011;33098;52.400;16.880;2023-07-20T09:34:29;3.10;;;1.30;;
24335;SDS011;33098;52.400;16.880;2023-07-20T09:36:59;3.70;;;1.90;;
24335;SDS011;33098;52.400;16.880;2023-07-20T09:39:26;2.20;;;1.20;;
24335;SDS011;33098;52.400;16.880;2023-07-20T09:41:53;2.30;;;1.90;;
24335;SDS011;33098;52.400;16.880;2023-07-20T09:44:20;0.90;;;0.90;;
24335;SDS011;33098;52.400;16.880;2023-07-20T09:46:47;1.10;;;1.10;;
24335;SDS011;33098;52.400;16.880;2023-07-20T09:49:16;3.90;;;1.10;;
24335;SDS011;33098;52.400;16.880;2023-07-20T09:51:44;2.40;;;1.10;;
24335;SDS011;33098;52.400;16.880;2023-07-20T09:54:13;1.70;;;1.10;;
24335;SDS011;33098;52.400;16.880;2023-07-20T09:56:40;2.40;;;0.90;;
24335;SDS011;33098;52.400;16.880;2023-07-20T09:59:08;2.90;;;1.10;;
24335;SDS011;33098;52.400;16.880;2023-07-20T10:01:35;1.50;;;1.40;;
24335;SDS011;33098;52.400;16.880;2023-07-20T10:04:04;4.50;;;1.20;;
24335;SDS011;33098;52.400;16.880;2023-07-20T10:06:36;2.30;;;1.20;;
24335;SDS011;33098;52.400;16.880;2023-07-20T10:09:08;2.00;;;1.20;;
24335;SDS011;33098;52.400;16.880;2023-07-20T10:11:39;4.00;;;1.40;;
24335;SDS011;33098;52.400;16.880;2023-07-20T10:14:16;2.80;;;1.50;;
24335;SDS011;33098;52.400;16.880;2023-07-20T10:22:10;1.70;;;1.60;;
24335;SDS011;33098;52.400;16.880;2023-07-20T10:24:41;3.80;;;1.80;;
24335;SDS011;33098;52.400;16.880;2023-07-20T10:27:12;2.60;;;1.80;;
24335;SDS011;33098;52.400;16.880;2023-07-20T10:29:39;2.50;;;1.90;;
24335;SDS011;33098;52.400;16.880;2023-07-20T10:32:07;2.00;;;1.70;;
24335;SDS011;33098;52.400;16.880;2023-07-20T10:34:35;2.00;;;1.70;;
24335;SDS011;33098;52.400;16.880;2023-07-20T10:37:02;2.40;;;1.90;;
24335;SDS011;33098;52.400;16.880;2023-07-20T10:39:32;2.60;;;2.00;;
24335;SDS011;33098;52.400;16.880;2023-07-20T10:42:06;3.60;;;2.60;;
24335;SDS011;33098;52.400;16.880;2023-07-20T10:44:36;5.90;;;2.90;;
24335;SDS011;33098;52.400;16.880;2023-07-20T10:47:10;3.00;;;2.80;;
24335;SDS011;33098;52.400;16.880;2023-07-20T10:49:57;2.90;;;2.70;;
24335;SDS011;33098;52.400;16.880;2023-07-20T10:52:25;5.60;;;2.90;;
24335;SDS011;33098;52.400;16.880;2023-07-20T10:54:52;3.30;;;2.70;;
24335;SDS011;33098;52.400;16.880;2023-07-20T10:57:29;3.70;;;3.20;;
24335;SDS011;33098;52.400;16.880;2023-07-20T11:00:11;3.00;;;2.70;;
24335;SDS011;33098;52.400;16.880;2023-07-20T11:02:47;3.00;;;2.70;;
24335;SDS011;33098;52.400;16.880;2023-07-20T11:05:35;2.00;;;1.90;;
24335;SDS011;33098;52.400;16.880;2023-07-20T11:08:05;3.20;;;2.70;;
24335;SDS011;33098;52.400;16.880;2023-07-20T11:11:20;2.50;;;2.20;;
24335;SDS011;33098;52.400;16.880;2023-07-20T11:13:57;3.80;;;2.80;;
24335;SDS011;33098;52.400;16.880;2023-07-20T11:16:40;3.30;;;3.00;;
24335;SDS011;33098;52.400;16.880;2023-07-20T11:21:46;2.90;;;2.70;;
24335;SDS011;33098;52.400;16.880;2023-07-20T11:24:17;3.00;;;2.20;;
24335;SDS011;33098;52.400;16.880;2023-07-20T11:26:48;3.80;;;2.20;;
24335;SDS011;33098;52.400;16.880;2023-07-20T11:29:16;2.40;;;2.20;;
24335;SDS011;33098;52.400;16.880;2023-07-20T11:31:44;2.30;;;2.10;;
24335;SDS011;33098;52.400;16.880;2023-07-20T11:34:13;1.80;;;1.70;;
24335;SDS011;33098;52.400;16.880;2023-07-20T11:36:41;2.10;;;1.90;;
24335;SDS011;33098;52.400;16.880;2023-07-20T11:39:10;2.70;;;1.70;;
24335;SDS011;33098;52.400;16.880;2023-07-20T11:41:43;1.70;;;1.50;;
24335;SDS011;33098;52.400;16.880;2023-07-20T11:44:13;2.10;;;1.20;;
24335;SDS011;33098;52.400;16.880;2023-07-20T11:46:42;1.10;;;0.80;;
24335;SDS011;33098;52.400;16.880;2023-07-20T11:51:39;3.00;;;1.00;;
24335;SDS011;33098;52.400;16.880;2023-07-20T11:54:07;1.10;;;0.90;;
24335;SDS011;33098;52.400;16.880;2023-07-20T11:56:35;0.80;;;0.70;;
24335;SDS011;33098;52.400;16.880;2023-07-20T11:59:02;1.10;;;0.70;;
24335;SDS011;33098;52.400;16.880;2023-07-20T12:01:29;0.90;;;0.80;;
24335;SDS011;33098;52.400;16.880;2023-07-20T12:03:59;0.90;;;0.80;;
24335;SDS011;33098;52.400;16.880;2023-07-20T12:06:27;0.70;;;0.70;;
24335;SDS011;33098;52.400;16.880;2023-07-20T12:08:55;0.80;;;0.80;;
24335;SDS011;33098;52.400;16.880;2023-07-20T12:11:30;0.90;;;0.90;;
24335;SDS011;33098;52.400;16.880;2023-07-20T12:14:00;1.30;;;0.90;;
24335;SDS011;33098;52.400;16.880;2023-07-20T12:16:28;0.80;;;0.80;;
24335;SDS011;33098;52.400;16.880;2023-07-20T12:19:05;0.80;;;0.80;;
24335;SDS011;33098;52.400;16.880;2023-07-20T12:21:37;0.60;;;0.60;;
24335;SDS011;33098;52.400;16.880;2023-07-20T12:24:10;0.90;;;0.70;;
24335;SDS011;33098;52.400;16.880;2023-07-20T12:26:37;0.80;;;0.80;;
24335;SDS011;33098;52.400;16.880;2023-07-20T12:29:04;1.10;;;0.80;;
24335;SDS011;33098;52.400;16.880;2023-07-20T12:31:34;0.90;;;0.90;;
24335;SDS011;33098;52.400;16.880;2023-07-20T12:34:03;0.80;;;0.80;;
24335;SDS011;33098;52.400;16.880;2023-07-20T12:36:29;0.90;;;0.90;;
24335;SDS011;33098;52.400;16.880;2023-07-20T12:39:01;1.40;;;0.80;;
24335;SDS011;33098;52.400;16.880;2023-07-20T12:41:28;1.00;;;0.90;;
24335;SDS011;33098;52.400;16.880;2023-07-20T12:43:55;1.30;;;0.90;;
24335;SDS011;33098;52.400;16.880;2023-07-20T12:46:24;1.00;;;1.00;;
24335;SDS011;33098;52.400;16.880;2023-07-20T12:48:51;3.40;;;0.90;;
24335;SDS011;33098;52.400;16.880;2023-07-20T12:51:18;1.50;;;1.00;;
24335;SDS011;33098;52.400;16.880;2023-07-20T12:53:45;0.80;;;0.80;;
24335;SDS011;33098;52.400;16.880;2023-07-20T12:56:12;0.80;;;0.80;;
24335;SDS011;33098;52.400;16.880;2023-07-20T12:58:39;1.30;;;0.80;;
24335;SDS011;33098;52.400;16.880;2023-07-20T13:01:05;1.50;;;0.80;;
24335;SDS011;33098;52.400;16.880;2023-07-20T13:03:32;4.80;;;1.00;;
24335;SDS011;33098;52.400;16.880;2023-07-20T13:05:59;2.40;;;1.00;;
24335;SDS011;33098;52.400;16.880;2023-07-20T13:08:25;1.00;;;1.00;;
24335;SDS011;33098;52.400;16.880;2023-07-20T13:10:53;1.10;;;0.90;;
24335;SDS011;33098;52.400;16.880;2023-07-20T13:13:20;1.90;;;0.90;;
24335;SDS011;33098;52.400;16.880;2023-07-20T13:15:46;2.20;;;0.90;;
24335;SDS011;33098;52.400;16.880;2023-07-20T13:18:14;1.10;;;0.80;;
24335;SDS011;33098;52.400;16.880;2023-07-20T13:20:41;0.90;;;0.90;;
24335;SDS011;33098;52.400;16.880;2023-07-20T13:23:09;1.20;;;1.00;;
24335;SDS011;33098;52.400;16.880;2023-07-20T13:25:36;1.80;;;1.00;;
24335;SDS011;33098;52.400;16.880;2023-07-20T13:28:04;2.70;;;1.00;;
24335;SDS011;33098;52.400;16.880;2023-07-20T13:30:31;1.40;;;1.00;;
24335;SDS011;33098;52.400;16.880;2023-07-20T13:32:57;2.20;;;1.10;;
24335;SDS011;33098;52.400;16.880;2023-07-20T13:35:24;1.50;;;0.90;;
24335;SDS011;33098;52.400;16.880;2023-07-20T13:37:50;2.00;;;1.00;;
24335;SDS011;33098;52.400;16.880;2023-07-20T13:40:17;1.90;;;1.20;;
24335;SDS011;33098;52.400;16.880;2023-07-20T13:42:45;1.10;;;1.10;;
24335;SDS011;33098;52.400;16.880;2023-07-20T13:45:12;1.00;;;1.00;;
24335;SDS011;33098;52.400;16.880;2023-07-20T13:47:38;2.80;;;1.00;;
24335;SDS011;33098;52.400;16.880;2023-07-20T13:50:08;3.60;;;1.00;;
24335;SDS011;33098;52.400;16.880;2023-07-20T13:55:04;1.00;;;0.90;;
24335;SDS011;33098;52.400;16.880;2023-07-20T13:57:31;1.30;;;1.00;;
24335;SDS011;33098;52.400;16.880;2023-07-20T13:59:58;1.50;;;1.00;;
24335;SDS011;33098;52.400;16.880;2023-07-20T14:02:26;1.40;;;1.00;;
24335;SDS011;33098;52.400;16.880;2023-07-20T14:04:55;1.60;;;1.00;;
24335;SDS011;33098;52.400;16.880;2023-07-20T14:07:22;1.10;;;0.90;;
24335;SDS011;33098;52.400;16.880;2023-07-20T14:09:49;1.60;;;0.90;;
24335;SDS011;33098;52.400;16.880;2023-07-20T14:12:15;1.30;;;0.90;;
24335;SDS011;33098;52.400;16.880;2023-07-20T14:14:42;0.80;;;0.80;;
24335;SDS011;33098;52.400;16.880;2023-07-20T14:17:08;1.50;;;1.10;;
24335;SDS011;33098;52.400;16.880;2023-07-20T14:19:37;1.30;;;0.80;;
24335;SDS011;33098;52.400;16.880;2023-07-20T14:22:04;1.00;;;0.80;;
24335;SDS011;33098;52.400;16.880;2023-07-20T14:24:31;1.20;;;0.80;;
24335;SDS011;33098;52.400;16.880;2023-07-20T14:26:57;1.80;;;0.80;;
24335;SDS011;33098;52.400;16.880;2023-07-20T14:29:24;0.70;;;0.70;;
24335;SDS011;33098;52.400;16.880;2023-07-20T14:31:50;1.20;;;0.90;;
24335;SDS011;33098;52.400;16.880;2023-07-20T14:34:18;0.70;;;0.70;;
24335;SDS011;33098;52.400;16.880;2023-07-20T14:36:45;0.70;;;0.70;;
24335;SDS011;33098;52.400;16.880;2023-07-20T14:39:12;1.30;;;0.90;;
24335;SDS011;33098;52.400;16.880;2023-07-20T14:41:41;0.60;;;0.60;;
24335;SDS011;33098;52.400;16.880;2023-07-20T14:44:08;0.70;;;0.70;;
24335;SDS011;33098;52.400;16.880;2023-07-20T14:46:36;1.20;;;0.90;;
24335;SDS011;33098;52.400;16.880;2023-07-20T14:49:03;1.10;;;0.90;;
24335;SDS011;33098;52.400;16.880;2023-07-20T14:51:30;2.30;;;0.90;;
24335;SDS011;33098;52.400;16.880;2023-07-20T14:53:59;3.20;;;0.90;;
24335;SDS011;33098;52.400;16.880;2023-07-20T14:56:27;1.00;;;0.80;;
24335;SDS011;33098;52.400;16.880;2023-07-20T14:58:54;1.40;;;0.80;;
24335;SDS011;33098;52.400;16.880;2023-07-20T15:01:26;0.70;;;0.50;;
24335;SDS011;33098;52.400;16.880;2023-07-20T15:03:52;1.90;;;0.70;;
24335;SDS011;33098;52.400;16.880;2023-07-20T15:06:19;1.30;;;0.70;;